createdAt,value
2022-08-28T00:01:38.503Z,82.47
2022-08-28T00:04:07.639Z,82.31
2022-08-28T00:06:36.732Z,81.99
2022-08-28T00:09:08.158Z,82.43
2022-08-28T00:11:40.768Z,82.71
2022-08-28T00:14:11.811Z,82.30
2022-08-28T00:16:42.605Z,82.32
2022-08-28T00:19:12.622Z,82.64
2022-08-28T00:21:41.917Z,82.48
2022-08-28T00:24:11.066Z,83.06
2022-08-28T00:26:58.284Z,82.04
2022-08-28T00:29:27.362Z,82.23
2022-08-28T00:31:57.889Z,81.61
2022-08-28T00:34:33.425Z,82.37
2022-08-28T00:37:03.222Z,82.34
2022-08-28T00:39:32.382Z,82.76
2022-08-28T00:42:01.680Z,82.38
2022-08-28T00:44:31.430Z,82.10
2022-08-28T00:47:02.245Z,82.57
2022-08-28T00:49:35.942Z,81.38
2022-08-28T00:52:11.966Z,82.58
2022-08-28T00:54:58.413Z,82.31
2022-08-28T00:57:32.172Z,81.72
2022-08-28T01:00:01.676Z,81.87
2022-08-28T01:02:32.344Z,83.75
2022-08-28T01:05:01.514Z,83.59
2022-08-28T01:07:31.029Z,83.13
2022-08-28T01:10:01.093Z,82.83
2022-08-28T01:12:33.373Z,83.38
2022-08-28T01:15:10.735Z,82.71
2022-08-28T01:17:49.088Z,83.09
2022-08-28T01:20:23.337Z,83.09
2022-08-28T01:23:03.323Z,82.59
2022-08-28T01:25:36.635Z,82.44
2022-08-28T01:28:10.420Z,82.96
2022-08-28T01:30:41.239Z,82.73
2022-08-28T01:33:10.261Z,82.36
2022-08-28T01:35:45.052Z,83.34
2022-08-28T01:38:20.072Z,83.02
2022-08-28T01:40:53.625Z,81.44
2022-08-28T01:43:26.298Z,82.13
2022-08-28T01:45:57.763Z,82.91
2022-08-28T01:48:28.123Z,82.38
2022-08-28T01:50:57.383Z,83.29
2022-08-28T01:53:32.666Z,83.19
2022-08-28T01:56:06.074Z,83.72
2022-08-28T01:58:38.396Z,83.72
2022-08-28T02:01:11.787Z,83.55
2022-08-28T02:03:43.357Z,83.25
2022-08-28T02:06:16.057Z,82.76
2022-08-28T02:08:45.637Z,82.95
2022-08-28T02:11:16.685Z,82.95
2022-08-28T02:13:45.892Z,82.99
2022-08-28T02:16:20.607Z,84.05
2022-08-28T02:18:50.267Z,82.78
2022-08-28T02:21:19.316Z,84.04
2022-08-28T02:23:48.932Z,83.60
2022-08-28T02:26:19.812Z,83.72
2022-08-28T02:28:50.072Z,83.91
2022-08-28T02:31:19.282Z,83.53
2022-08-28T02:33:48.356Z,82.99
2022-08-28T02:36:18.439Z,82.41
2022-08-28T02:38:48.407Z,82.53
2022-08-28T02:41:18.919Z,83.06
2022-08-28T02:43:49.070Z,82.65
2022-08-28T02:46:18.466Z,82.42
2022-08-28T02:48:47.559Z,82.23
2022-08-28T02:51:16.963Z,81.98
2022-08-28T02:53:46.068Z,81.56
2022-08-28T02:56:15.195Z,82.47
2022-08-28T02:58:45.998Z,82.65
2022-08-28T03:01:15.711Z,82.50
2022-08-28T03:03:45.100Z,83.56
2022-08-28T03:06:14.999Z,82.61
2022-08-28T03:08:45.076Z,82.79
2022-08-28T03:16:18.538Z,82.18
2022-08-28T03:18:47.925Z,82.22
2022-08-28T03:21:17.013Z,82.61
2022-08-28T03:23:47.302Z,81.41
2022-08-28T03:26:19.619Z,81.24
2022-08-28T03:28:52.026Z,81.82
2022-08-28T03:31:25.317Z,81.52
2022-08-28T03:33:54.784Z,80.89
2022-08-28T03:36:27.743Z,81.14
2022-08-28T03:39:00.240Z,81.30
2022-08-28T03:41:32.007Z,81.70
2022-08-28T03:44:03.183Z,81.17
2022-08-28T03:46:35.247Z,80.62
2022-08-28T03:49:06.117Z,81.53
2022-08-28T03:51:36.415Z,80.58
2022-08-28T03:54:05.976Z,81.11
2022-08-28T03:56:35.226Z,81.30
2022-08-28T03:59:05.571Z,81.15
2022-08-28T04:01:38.343Z,80.73
2022-08-28T04:04:07.755Z,81.44
2022-08-28T04:06:36.952Z,81.20
2022-08-28T04:09:07.269Z,81.84
2022-08-28T04:11:40.748Z,82.25
2022-08-28T04:14:10.212Z,82.61
2022-08-28T04:16:41.613Z,81.50
2022-08-28T04:19:10.873Z,81.37
2022-08-28T04:21:40.372Z,81.33
2022-08-28T04:24:09.889Z,81.20
2022-08-28T04:26:39.326Z,81.34
2022-08-28T04:29:09.194Z,80.75
2022-08-28T04:31:38.351Z,80.85
2022-08-28T04:34:10.996Z,80.02
2022-08-28T04:36:40.480Z,80.09
2022-08-28T04:39:11.166Z,80.40
2022-08-28T04:41:40.580Z,80.07
2022-08-28T04:44:10.081Z,79.70
2022-08-28T04:46:39.722Z,79.65
2022-08-28T04:49:12.138Z,79.60
2022-08-28T04:51:42.307Z,79.42
2022-08-28T04:54:11.903Z,79.83
2022-08-28T04:56:42.044Z,79.89
2022-08-28T04:59:11.931Z,79.21
2022-08-28T05:01:42.853Z,78.50
2022-08-28T05:04:14.350Z,78.70
2022-08-28T05:06:46.453Z,78.00
2022-08-28T05:09:17.561Z,77.46
2022-08-28T05:11:47.946Z,76.42
2022-08-28T05:14:17.825Z,77.47
2022-08-28T05:16:49.133Z,77.92
2022-08-28T05:19:21.611Z,78.25
2022-08-28T05:21:51.615Z,76.56
2022-08-28T05:24:21.379Z,76.48
2022-08-28T05:26:50.930Z,76.41
2022-08-28T05:29:19.886Z,76.56
2022-08-28T05:31:49.614Z,75.49
2022-08-28T05:34:20.796Z,76.28
2022-08-28T05:36:50.230Z,75.47
2022-08-28T05:39:19.824Z,75.19
2022-08-28T05:41:48.829Z,74.14
2022-08-28T05:44:19.719Z,74.16
2022-08-28T05:46:51.115Z,73.47
2022-08-28T05:49:21.827Z,73.34
2022-08-28T05:51:52.487Z,73.24
2022-08-28T05:54:21.729Z,74.97
2022-08-28T05:56:50.876Z,74.44
2022-08-28T05:59:19.922Z,73.42
2022-08-28T06:01:51.077Z,72.57
2022-08-28T06:04:26.505Z,72.41
2022-08-28T06:06:57.316Z,72.55
2022-08-28T06:09:30.093Z,71.16
2022-08-28T06:12:02.998Z,70.49
2022-08-28T06:14:33.546Z,70.22
2022-08-28T06:17:05.204Z,70.42
2022-08-28T06:19:41.291Z,70.47
2022-08-28T06:22:14.799Z,69.34
2022-08-28T06:24:43.917Z,68.88
2022-08-28T06:27:13.302Z,67.81
2022-08-28T06:29:42.362Z,66.81
2022-08-28T06:32:11.502Z,65.74
2022-08-28T06:34:42.419Z,65.95
2022-08-28T06:37:11.652Z,62.13
2022-08-28T06:39:40.682Z,61.96
2022-08-28T06:42:10.627Z,61.53
2022-08-28T06:44:40.634Z,61.32
2022-08-28T06:47:11.279Z,62.37
2022-08-28T06:49:42.033Z,61.59
2022-08-28T06:52:10.924Z,60.89
2022-08-28T06:54:40.031Z,59.95
2022-08-28T06:57:15.081Z,59.86
2022-08-28T06:59:44.389Z,59.85
2022-08-28T07:02:13.577Z,59.95
2022-08-28T07:04:44.440Z,58.16
2022-08-28T07:07:31.312Z,57.19
2022-08-28T07:10:02.117Z,57.07
2022-08-28T07:12:31.974Z,58.16
2022-08-28T07:15:01.816Z,57.76
2022-08-28T07:17:32.983Z,57.19
2022-08-28T07:20:03.917Z,56.82
2022-08-28T07:22:35.891Z,56.39
2022-08-28T07:25:06.066Z,55.23
2022-08-28T07:27:35.105Z,55.81
2022-08-28T07:30:04.473Z,55.99
2022-08-28T07:32:36.318Z,55.46
2022-08-28T07:35:07.889Z,55.52
2022-08-28T07:37:37.798Z,56.03
2022-08-28T07:40:12.574Z,54.93
2022-08-28T07:43:01.453Z,56.09
2022-08-28T07:45:31.382Z,54.77
2022-08-28T07:48:00.534Z,52.67
2022-08-28T07:50:31.885Z,51.87
2022-08-28T07:53:01.163Z,54.50
2022-08-28T07:55:32.004Z,53.46
2022-08-28T07:58:01.791Z,52.29
2022-08-28T08:00:31.040Z,49.82
2022-08-28T08:03:00.215Z,52.37
2022-08-28T08:05:30.707Z,52.17
2022-08-28T08:08:00.262Z,50.93
2022-08-28T08:10:33.924Z,53.61
2022-08-28T08:13:03.949Z,51.76
2022-08-28T08:15:36.033Z,52.59
2022-08-28T08:18:05.645Z,51.80
2022-08-28T08:20:36.246Z,50.47
2022-08-28T08:23:05.226Z,50.91
2022-08-28T08:25:34.649Z,50.10
2022-08-28T08:28:03.992Z,50.80
2022-08-28T08:30:32.912Z,53.06
2022-08-28T08:33:02.213Z,48.81
2022-08-28T08:35:31.246Z,48.77
2022-08-28T08:38:02.963Z,51.48
2022-08-28T08:40:32.829Z,47.95
2022-08-28T08:43:04.141Z,48.62
2022-08-28T08:45:35.732Z,47.19
2022-08-28T08:48:05.395Z,45.68
2022-08-28T08:50:36.871Z,45.22
2022-08-28T08:53:20.804Z,45.05
2022-08-28T08:55:52.315Z,44.26
2022-08-28T08:58:29.232Z,44.93
2022-08-28T09:01:04.996Z,44.62
2022-08-28T09:03:53.039Z,44.71
2022-08-28T09:06:31.133Z,45.02
2022-08-28T09:09:03.895Z,44.97
2022-08-28T09:11:45.617Z,43.93
2022-08-28T09:14:29.594Z,42.92
2022-08-28T09:17:00.602Z,42.48
2022-08-28T09:19:31.233Z,43.59
2022-08-28T09:22:00.579Z,42.36
2022-08-28T09:24:33.057Z,41.54
2022-08-28T09:27:05.789Z,42.73
2022-08-28T09:29:37.429Z,40.96
2022-08-28T09:32:19.690Z,41.98
2022-08-28T09:35:06.022Z,41.58
2022-08-28T09:37:38.263Z,38.85
2022-08-28T09:40:25.190Z,43.08
2022-08-28T09:43:22.359Z,39.53
2022-08-28T09:45:58.270Z,41.22
2022-08-28T09:48:37.023Z,39.89
2022-08-28T09:51:08.009Z,41.64
2022-08-28T09:53:42.997Z,39.96
2022-08-28T09:56:19.005Z,37.33
2022-08-28T09:58:53.502Z,36.96
2022-08-28T10:01:40.726Z,36.65
2022-08-28T10:04:30.301Z,39.88
2022-08-28T10:07:05.245Z,34.32
2022-08-28T10:09:46.807Z,34.57
2022-08-28T10:12:32.694Z,34.14
2022-08-28T10:15:10.461Z,34.05
2022-08-28T10:17:50.260Z,33.98
2022-08-28T10:20:31.308Z,31.17
2022-08-28T10:23:14.454Z,30.10
2022-08-28T10:25:55.299Z,31.19
2022-08-28T10:28:41.736Z,28.53
2022-08-28T10:31:16.835Z,29.29
2022-08-28T10:34:04.785Z,27.70
2022-08-28T10:36:35.986Z,23.35
2022-08-28T10:39:25.452Z,22.82
2022-08-28T10:41:59.763Z,23.72
2022-08-28T10:44:39.909Z,20.76
2022-08-28T10:47:11.056Z,22.11
2022-08-28T10:49:42.919Z,20.46
2022-08-28T10:52:17.443Z,18.93
2022-08-28T10:54:51.754Z,22.05
2022-08-28T10:57:34.018Z,22.02
2022-08-28T11:00:12.282Z,18.86
2022-08-28T11:02:45.207Z,20.08
2022-08-28T11:05:15.138Z,17.44
2022-08-28T11:07:50.774Z,17.81
2022-08-28T11:10:24.893Z,18.77
2022-08-28T11:12:54.605Z,21.68
2022-08-28T11:15:52.618Z,20.11
2022-08-28T11:19:00.863Z,18.88
2022-08-28T11:21:33.096Z,17.53
2022-08-28T11:24:07.372Z,19.80
2022-08-28T11:26:53.156Z,23.20
2022-08-28T11:30:01.603Z,23.42
2022-08-28T11:33:00.110Z,24.66
2022-08-28T11:35:43.596Z,21.89
2022-08-28T11:38:15.585Z,21.09
2022-08-28T11:40:58.036Z,19.77
2022-08-28T11:43:37.540Z,20.13
2022-08-28T11:46:17.498Z,18.38
2022-08-28T11:48:52.619Z,19.47
2022-08-28T11:51:54.267Z,18.84
2022-08-28T11:54:39.256Z,18.94
2022-08-28T11:57:15.499Z,19.41
2022-08-28T12:00:02.806Z,19.36
2022-08-28T12:03:17.060Z,20.44
2022-08-28T12:05:50.486Z,27.19
2022-08-28T12:09:11.994Z,30.39
2022-08-28T12:11:55.021Z,33.58
2022-08-28T12:15:06.015Z,34.05
2022-08-28T12:17:52.531Z,35.16
2022-08-28T12:20:44.624Z,36.35
2022-08-28T12:23:39.927Z,35.71
2022-08-28T12:26:21.039Z,35.95
2022-08-28T12:28:53.223Z,37.14
2022-08-28T12:32:06.072Z,34.15
2022-08-28T12:34:50.958Z,31.65
2022-08-28T12:37:43.963Z,27.18
2022-08-28T12:40:26.171Z,27.25
2022-08-28T12:42:58.843Z,28.01
2022-08-28T12:45:32.024Z,31.39
2022-08-28T12:48:05.564Z,36.07
2022-08-28T12:50:38.364Z,39.79
2022-08-28T12:53:13.416Z,42.37
2022-08-28T12:55:45.554Z,43.29
2022-08-28T12:58:29.031Z,45.78
2022-08-28T13:01:00.559Z,46.80
2022-08-28T13:03:30.572Z,46.95
2022-08-28T13:06:05.143Z,48.92
2022-08-28T13:08:35.835Z,49.78
2022-08-28T13:11:06.992Z,51.40
2022-08-28T13:13:40.207Z,51.52
2022-08-28T13:16:11.252Z,52.09
2022-08-28T13:18:45.364Z,52.50
2022-08-28T13:21:37.311Z,54.68
2022-08-28T13:24:29.151Z,54.57
2022-08-28T13:27:06.895Z,55.04
2022-08-28T13:29:37.956Z,56.52
2022-08-28T13:32:09.740Z,57.74
2022-08-28T13:34:48.076Z,58.61
2022-08-28T13:37:44.212Z,57.68
2022-08-28T13:40:38.181Z,57.41
2022-08-28T13:43:11.157Z,58.36
2022-08-28T13:45:43.945Z,57.00
2022-08-28T13:48:16.878Z,56.18
2022-08-28T13:50:49.141Z,54.85
2022-08-28T13:53:20.273Z,57.30
2022-08-28T13:55:51.933Z,56.25
2022-08-28T13:58:23.472Z,57.86
2022-08-28T14:00:53.387Z,53.88
2022-08-28T14:03:38.211Z,55.10
2022-08-28T14:06:11.980Z,56.69
2022-08-28T14:08:43.412Z,55.91
2022-08-28T14:11:14.473Z,53.27
2022-08-28T14:13:47.294Z,52.53
2022-08-28T14:16:26.268Z,51.93
2022-08-28T14:18:56.114Z,50.90
2022-08-28T14:21:25.608Z,51.23
2022-08-28T14:23:55.014Z,49.91
2022-08-28T14:26:24.171Z,44.79
2022-08-28T14:29:04.066Z,44.52
2022-08-28T14:31:37.072Z,41.35
2022-08-28T14:34:07.023Z,40.06
2022-08-28T14:36:36.760Z,39.41
2022-08-28T14:39:08.114Z,37.30
2022-08-28T14:41:37.836Z,36.76
2022-08-28T14:44:09.194Z,37.92
2022-08-28T14:46:39.099Z,40.12
2022-08-28T14:49:13.315Z,43.36
2022-08-28T14:51:44.543Z,39.17
2022-08-28T14:54:16.274Z,36.61
2022-08-28T14:56:47.293Z,38.51
2022-08-28T14:59:24.496Z,37.27
2022-08-28T15:01:55.740Z,38.41
2022-08-28T15:04:27.170Z,41.51
2022-08-28T15:06:59.601Z,41.50
2022-08-28T15:09:29.223Z,42.10
2022-08-28T15:11:58.508Z,43.76
2022-08-28T15:14:29.151Z,44.35
2022-08-28T15:16:58.581Z,45.49
2022-08-28T15:19:30.039Z,45.87
2022-08-28T15:22:00.289Z,46.66
2022-08-28T15:24:34.261Z,47.02
2022-08-28T15:27:04.105Z,48.48
2022-08-28T15:29:34.743Z,48.05
2022-08-28T15:32:05.737Z,48.24
2022-08-28T15:34:35.083Z,47.53
2022-08-28T15:37:07.844Z,46.29
2022-08-28T15:39:54.368Z,44.77
2022-08-28T15:42:24.116Z,44.32
2022-08-28T15:44:56.434Z,42.87
2022-08-28T15:47:27.400Z,41.77
2022-08-28T15:49:57.340Z,39.67
2022-08-28T15:52:26.589Z,38.82
2022-08-28T15:54:55.639Z,40.01
2022-08-28T15:57:24.903Z,39.38
2022-08-28T15:59:55.623Z,38.69
2022-08-28T16:02:26.584Z,40.16
2022-08-28T16:04:56.206Z,40.21
2022-08-28T16:07:25.899Z,41.77
2022-08-28T16:09:55.130Z,43.12
2022-08-28T16:12:25.522Z,43.28
2022-08-28T16:14:56.175Z,43.85
2022-08-28T16:17:25.448Z,45.42
2022-08-28T16:19:55.008Z,46.48
2022-08-28T16:22:24.506Z,46.12
2022-08-28T16:24:53.588Z,47.21
2022-08-28T16:27:22.932Z,46.53
2022-08-28T16:29:52.961Z,47.58
2022-08-28T16:32:23.970Z,48.00
2022-08-28T16:34:53.553Z,49.18
2022-08-28T16:37:23.283Z,50.01
2022-08-28T16:39:56.100Z,51.06
2022-08-28T16:42:27.676Z,51.64
2022-08-28T16:45:00.841Z,50.95
2022-08-28T16:47:33.179Z,50.70
2022-08-28T16:50:06.201Z,50.53
2022-08-28T16:52:38.042Z,52.25
2022-08-28T16:55:09.398Z,52.60
2022-08-28T16:57:40.278Z,52.58
2022-08-28T17:00:13.650Z,53.59
2022-08-28T17:02:46.648Z,53.98
2022-08-28T17:05:17.598Z,55.05
2022-08-28T17:07:47.561Z,55.64
2022-08-28T17:10:19.724Z,55.75
2022-08-28T17:12:49.308Z,56.78
2022-08-28T17:15:19.831Z,56.91
2022-08-28T17:17:52.841Z,57.61
2022-08-28T17:20:39.411Z,58.65
2022-08-28T17:23:09.016Z,60.04
2022-08-28T17:25:38.339Z,60.24
2022-08-28T17:28:07.795Z,59.51
2022-08-28T17:30:36.978Z,60.49
2022-08-28T17:33:08.246Z,61.57
2022-08-28T17:35:41.902Z,62.55
2022-08-28T17:38:11.634Z,62.58
2022-08-28T17:40:41.020Z,63.35
2022-08-28T17:43:10.256Z,63.83
2022-08-28T17:45:39.325Z,64.05
2022-08-28T17:48:10.651Z,64.05
2022-08-28T17:50:41.023Z,64.50
2022-08-28T17:53:10.662Z,64.88
2022-08-28T17:55:39.712Z,65.21
2022-08-28T17:58:08.778Z,65.18
2022-08-28T18:00:38.321Z,65.20
2022-08-28T18:03:07.689Z,65.92
2022-08-28T18:05:38.557Z,65.67
2022-08-28T18:08:08.370Z,66.48
2022-08-28T18:10:37.560Z,66.22
2022-08-28T18:13:07.858Z,66.60
2022-08-28T18:15:40.221Z,66.07
2022-08-28T18:18:13.656Z,65.54
2022-08-28T18:20:44.701Z,66.40
2022-08-28T18:23:13.803Z,66.55
2022-08-28T18:25:50.622Z,66.29
2022-08-28T18:28:22.631Z,66.99
2022-08-28T18:30:53.945Z,67.21
2022-08-28T18:33:30.994Z,67.57
2022-08-28T18:36:02.404Z,67.49
2022-08-28T18:38:35.133Z,68.03
2022-08-28T18:41:05.281Z,68.13
2022-08-28T18:43:35.070Z,68.13
2022-08-28T18:46:06.203Z,67.56
2022-08-28T18:48:37.866Z,67.68
2022-08-28T18:51:10.041Z,66.94
2022-08-28T18:53:42.326Z,67.58
2022-08-28T18:56:13.047Z,67.39
2022-08-28T18:58:43.199Z,68.28
2022-08-28T19:01:12.547Z,68.22
2022-08-28T19:03:41.716Z,67.77
2022-08-28T19:06:15.638Z,67.83
2022-08-28T19:08:46.118Z,68.23
2022-08-28T19:11:17.209Z,68.73
2022-08-28T19:13:46.313Z,68.71
2022-08-28T19:16:19.064Z,69.00
2022-08-28T19:18:48.918Z,68.39
2022-08-28T19:21:24.986Z,68.86
2022-08-28T19:23:55.897Z,68.25
2022-08-28T19:26:26.213Z,69.08
2022-08-28T19:28:56.109Z,68.33
2022-08-28T19:31:26.923Z,68.02
2022-08-28T19:33:57.079Z,68.21
2022-08-28T19:36:30.213Z,67.92
2022-08-28T19:39:01.104Z,68.14
2022-08-28T19:41:30.409Z,68.79
2022-08-28T19:43:59.347Z,69.13
2022-08-28T19:46:29.811Z,69.26
2022-08-28T19:49:01.296Z,69.60
2022-08-28T19:51:32.069Z,69.87
2022-08-28T19:54:03.184Z,69.58
2022-08-28T19:56:34.656Z,70.07
2022-08-28T19:59:06.230Z,69.71
2022-08-28T20:01:38.559Z,69.19
2022-08-28T20:04:09.529Z,69.40
2022-08-28T20:06:40.609Z,69.95
2022-08-28T20:09:12.828Z,69.47
2022-08-28T20:11:45.039Z,69.70
2022-08-28T20:14:15.306Z,70.28
2022-08-28T20:16:47.222Z,70.00
2022-08-28T20:19:17.016Z,70.40
2022-08-28T20:21:50.011Z,71.42
2022-08-28T20:24:24.096Z,71.44
2022-08-28T20:26:54.355Z,71.53
2022-08-28T20:29:24.374Z,71.03
2022-08-28T20:31:54.198Z,71.91
2022-08-28T20:34:24.573Z,71.69
2022-08-28T20:36:55.543Z,71.39
2022-08-28T20:39:25.275Z,70.81
2022-08-28T20:41:54.301Z,70.58
2022-08-28T20:44:23.898Z,71.61
2022-08-28T20:46:53.754Z,71.47
2022-08-28T20:49:25.375Z,71.93
2022-08-28T20:51:57.646Z,72.05
2022-08-28T20:54:30.218Z,72.36
2022-08-28T20:57:02.452Z,72.41
2022-08-28T20:59:37.228Z,71.89
2022-08-28T21:02:12.319Z,72.52
2022-08-28T21:04:43.298Z,72.08
2022-08-28T21:07:15.664Z,72.53
2022-08-28T21:10:05.181Z,72.80
2022-08-28T21:12:36.818Z,73.20
2022-08-28T21:15:06.967Z,72.81
2022-08-28T21:17:38.104Z,73.33
2022-08-28T21:20:10.624Z,73.11
2022-08-28T21:22:42.323Z,73.43
2022-08-28T21:25:15.381Z,73.93
2022-08-28T21:27:45.371Z,74.13
2022-08-28T21:30:18.242Z,73.90
2022-08-28T21:32:49.098Z,73.89
2022-08-28T21:35:20.463Z,74.07
2022-08-28T21:37:51.220Z,73.61
2022-08-28T21:40:22.561Z,73.51
2022-08-28T21:42:51.900Z,73.11
2022-08-28T21:45:22.081Z,73.64
2022-08-28T21:47:51.042Z,73.87
2022-08-28T21:50:22.078Z,73.60
2022-08-28T21:52:52.776Z,73.05
2022-08-28T21:55:22.497Z,73.81
2022-08-28T21:57:51.466Z,73.17
2022-08-28T22:00:23.455Z,73.85
2022-08-28T22:02:52.687Z,72.92
2022-08-28T22:05:22.284Z,73.28
2022-08-28T22:07:52.585Z,72.94
2022-08-28T22:10:23.049Z,73.07
2022-08-28T22:12:52.088Z,72.54
2022-08-28T22:15:21.254Z,72.99
2022-08-28T22:17:50.443Z,72.78
2022-08-28T22:20:20.130Z,72.01
2022-08-28T22:23:06.908Z,71.52
2022-08-28T22:25:40.672Z,71.98
2022-08-28T22:28:11.919Z,72.07
2022-08-28T22:30:41.628Z,72.54
2022-08-28T22:33:11.514Z,71.80
2022-08-28T22:35:40.634Z,70.84
2022-08-28T22:38:11.209Z,70.89
2022-08-28T22:40:41.740Z,70.86
2022-08-28T22:43:10.889Z,70.57
2022-08-28T22:45:39.983Z,71.11
2022-08-28T22:48:10.387Z,70.11
2022-08-28T22:50:39.990Z,69.92
2022-08-28T22:53:09.769Z,69.87
2022-08-28T22:55:43.444Z,69.49
2022-08-28T22:58:14.292Z,69.69
2022-08-28T23:00:43.831Z,69.49
2022-08-28T23:03:13.475Z,69.35
2022-08-28T23:05:42.675Z,69.75
2022-08-28T23:08:11.781Z,70.27
2022-08-28T23:10:58.695Z,69.78
2022-08-28T23:13:28.947Z,71.74
2022-08-28T23:15:58.765Z,71.42
2022-08-28T23:18:28.160Z,70.60
2022-08-28T23:20:57.802Z,70.69
2022-08-28T23:23:27.330Z,70.96
2022-08-28T23:25:57.793Z,70.46
2022-08-28T23:28:27.022Z,71.10
2022-08-28T23:30:56.446Z,71.00
2022-08-28T23:33:25.541Z,71.76
2022-08-28T23:35:54.813Z,71.19
2022-08-28T23:38:24.427Z,70.71
2022-08-28T23:40:56.780Z,71.61
2022-08-28T23:43:26.487Z,71.49
2022-08-28T23:45:56.290Z,71.50
2022-08-28T23:48:26.024Z,71.23
2022-08-28T23:50:55.834Z,71.27
2022-08-28T23:53:24.872Z,71.34
2022-08-28T23:55:53.861Z,72.99
2022-08-28T23:58:25.836Z,72.15
